Terminal Aerodrome Forecast
Issued by NWS

Home | Current Version | Previous Version | Graphics & Text | Print | Product List | Glossary On
Versions: 1 2 3 4 5 6 7 8 9 10 11 12 13 14 15 16 17 18 19 20 21
000
FTUS43 KGRB 191739
TAFCWA
TAF
KCWA 191739Z 1918/2018 05011KT 5SM BR OVC015
      TEMPO 1918/1920 3SM -FZRASN OVC008
     FM192000 05012G20KT 1 1/2SM -FZRASN BR OVC006
     FM192100 05012G21KT 2SM -FZRAPL BR OVC008
     FM192300 05012G21KT 4SM -FZRA OVC008
     FM200300 05010KT 6SM -FZDZ OVC008
     FM201100 06006KT 3SM -FZDZ OVC003
     FM201200 06006KT 2SM -FZRA OVC003
     FM201700 31004KT 1SM -FZRA OVC003=

USA.gov is the U.S. government's official web portal to all federal, state and local government web resources and services.